createdAt,value
2023-05-17T00:06:48.937Z,100008.31
2023-05-17T00:16:50.446Z,100002.97
2023-05-17T00:26:51.915Z,100008.28
2023-05-17T00:36:53.386Z,100012.44
2023-05-17T00:46:54.846Z,100015.75
2023-05-17T00:56:57.606Z,100019.06
2023-05-17T01:06:59.053Z,100026.41
2023-05-17T01:17:06.440Z,100026.25
2023-05-17T01:27:08.058Z,100031.19
2023-05-17T01:37:09.791Z,100042.59
2023-05-17T01:47:16.529Z,100047.25
2023-05-17T01:57:19.780Z,100056.56
2023-05-17T02:07:21.298Z,100062.56
2023-05-17T02:17:22.884Z,100059.84
2023-05-17T02:27:24.348Z,100065.28
2023-05-17T02:37:26.165Z,100069.28
2023-05-17T02:47:27.685Z,100063.22
2023-05-17T02:57:29.239Z,100066.03
2023-05-17T03:07:30.727Z,100060.94
2023-05-17T03:17:32.286Z,100063.88
2023-05-17T03:27:34.001Z,100074.63
2023-05-17T03:37:35.797Z,100095.53
2023-05-17T03:47:37.450Z,100107.72
2023-05-17T03:57:39.064Z,100112.19
2023-05-17T04:07:40.821Z,100116.41
2023-05-17T04:17:42.298Z,100120.47
2023-05-17T04:27:44.901Z,100132.38
2023-05-17T04:37:46.339Z,100131.06
2023-05-17T04:47:48.187Z,100141.94
2023-05-17T04:57:49.917Z,100141.31
2023-05-17T05:07:51.563Z,100146.53
2023-05-17T05:17:53.184Z,100167.13
2023-05-17T05:27:54.730Z,100187.56
2023-05-17T05:37:57.164Z,100203.66
2023-05-17T05:47:58.687Z,100199.22
2023-05-17T05:58:00.186Z,100211.16
2023-05-17T06:08:01.678Z,100214.56
2023-05-17T06:18:03.265Z,100213.22
2023-05-17T06:28:04.916Z,100218.97
2023-05-17T06:38:06.344Z,100225.94
2023-05-17T06:48:08.000Z,100226.25
2023-05-17T06:58:09.509Z,100247.50
2023-05-17T07:08:10.931Z,100241.66
2023-05-17T07:18:12.522Z,100246.53
2023-05-17T07:28:15.166Z,100266.53
2023-05-17T07:38:16.839Z,100272.41
2023-05-17T07:48:18.521Z,100282.94
2023-05-17T07:58:22.056Z,100281.50
2023-05-17T08:08:23.648Z,100288.72
2023-05-17T08:18:30.781Z,100297.75
2023-05-17T08:28:32.346Z,100295.56
2023-05-17T08:38:34.386Z,100295.16
2023-05-17T08:48:42.052Z,100294.97
2023-05-17T08:58:55.546Z,100296.53
2023-05-17T09:08:58.268Z,100303.66
2023-05-17T09:19:00.222Z,100300.69
2023-05-17T09:29:01.762Z,100303.09
2023-05-17T09:39:05.897Z,100311.44
2023-05-17T09:49:09.159Z,100305.41
2023-05-17T09:59:11.928Z,100296.88
2023-05-17T10:09:13.951Z,100290.25
2023-05-17T10:19:16.132Z,100289.31
2023-05-17T10:29:18.243Z,100290.41
2023-05-17T10:39:20.259Z,100281.94
2023-05-17T10:49:26.979Z,100289.53
2023-05-17T10:59:29.630Z,100276.78
2023-05-17T11:09:31.102Z,100277.03
2023-05-17T11:19:32.772Z,100258.94
2023-05-17T11:29:34.431Z,100258.13
2023-05-17T11:39:36.238Z,100261.59
2023-05-17T11:49:38.404Z,100262.75
2023-05-17T11:59:40.110Z,100260.31
2023-05-17T12:09:44.126Z,100260.69
2023-05-17T12:19:45.634Z,100260.63
2023-05-17T12:29:47.242Z,100250.69
2023-05-17T12:39:48.945Z,100242.34
2023-05-17T12:49:56.753Z,100248.75
2023-05-17T12:59:58.320Z,100245.09
2023-05-17T13:09:59.886Z,100252.63
2023-05-17T13:20:01.438Z,100255.34
2023-05-17T13:30:03.090Z,100257.34
2023-05-17T13:40:04.998Z,100255.69
2023-05-17T13:50:07.829Z,100240.44
2023-05-17T14:00:09.906Z,100241.44
2023-05-17T14:10:14.514Z,100242.59
2023-05-17T14:20:16.107Z,100224.03
2023-05-17T14:30:17.648Z,100225.47
2023-05-17T14:40:19.081Z,100225.19
2023-05-17T14:50:20.695Z,100210.13
2023-05-17T15:00:22.245Z,100204.00
2023-05-17T15:10:23.872Z,100207.91
2023-05-17T15:20:25.575Z,100209.31
2023-05-17T15:30:27.499Z,100204.94
2023-05-17T15:40:28.950Z,100214.81
2023-05-17T15:50:30.371Z,100211.25
2023-05-17T16:00:32.026Z,100199.38
2023-05-17T16:10:33.541Z,100208.22
2023-05-17T16:20:34.996Z,100212.50
2023-05-17T16:30:37.262Z,100217.69
2023-05-17T16:40:38.715Z,100207.22
2023-05-17T16:50:41.317Z,100226.63
2023-05-17T17:00:42.739Z,100229.41
2023-05-17T17:10:44.167Z,100236.16
2023-05-17T17:20:46.401Z,100236.03
2023-05-17T17:30:47.984Z,100230.72
2023-05-17T17:40:49.501Z,100246.59
2023-05-17T17:50:51.304Z,100251.41
2023-05-17T18:00:53.669Z,100243.56
2023-05-17T18:10:55.409Z,100258.19
2023-05-17T18:20:56.846Z,100270.28
2023-05-17T18:30:58.531Z,100276.19
2023-05-17T18:40:59.975Z,100269.50
2023-05-17T18:51:01.988Z,100270.38
2023-05-17T19:01:03.639Z,100288.28
2023-05-17T19:11:06.670Z,100281.47
2023-05-17T19:21:08.095Z,100278.31
2023-05-17T19:31:09.648Z,100291.63
2023-05-17T19:41:11.244Z,100300.91
2023-05-17T19:51:12.698Z,100308.28
2023-05-17T20:01:14.144Z,100307.47
2023-05-17T20:11:15.918Z,100310.81
2023-05-17T20:21:19.718Z,100310.34
2023-05-17T20:31:21.494Z,100309.28
2023-05-17T20:41:23.336Z,100314.34
2023-05-17T20:51:26.873Z,100314.47
2023-05-17T21:01:28.357Z,100318.91
2023-05-17T21:11:29.912Z,100323.91
2023-05-17T21:21:31.397Z,100328.84
2023-05-17T21:31:32.890Z,100335.47
2023-05-17T21:41:34.510Z,100332.75
2023-05-17T21:51:36.207Z,100333.53
2023-05-17T22:01:37.858Z,100333.63
2023-05-17T22:11:40.627Z,100337.72
2023-05-17T22:21:42.271Z,100332.84
2023-05-17T22:31:44.015Z,100334.22
2023-05-17T22:41:45.695Z,100331.09
2023-05-17T22:51:47.148Z,100337.53
2023-05-17T23:01:48.748Z,100332.72
2023-05-17T23:11:50.263Z,100331.97
2023-05-17T23:21:51.674Z,100333.69
2023-05-17T23:31:53.395Z,100337.69
2023-05-17T23:41:54.936Z,100334.09
2023-05-17T23:51:56.394Z,100326.28
